Impacts METAR Board
IDs:

KBHM - Birmingham Intl, AL, US

Updated at: 0200 UTC 23 Oct 2018
Potential Impact None Slight Moderate High
Time 22/14Z 22/15Z 22/16Z 22/17Z 22/18Z 22/19Z 22/20Z 22/21Z 22/22Z 22/23Z 23/00Z 23/01Z 23/02Z
Temp52 58 60 64 65 68 68 67 66 61 58 56 55
Dewpt38 37 37 35 37 38 38 39 41 41 44 46 45
Altim30.32 30.33 30.32 30.31 30.28 30.25 30.23 30.22 30.22 30.23 30.23 30.23 30.24
VIS10 10 10 10 10 10 10 10 10 10 10 10 10
CIG250 250 250 250 250 250 250 -- 250 250 250 250 250
CoverBKNBKNBKNBKNBKNBKNBKNSCTOVCBKNBKNBKNOVC
FltCatVFRVFRVFRVFRVFRVFRVFRVFRVFRVFRVFRVFRVFR
WX--------------------------
WDir00120000600809011000
WSpd0 0 10 5 0 3 7 0 4 3 3 0 0
WGst-- -- -- -- -- -- -- -- -- -- -- -- --
Raw hourly METARs
KBHM 221353Z 00000KT 10SM BKN250 11/03 A3032 RMK AO2 SLP268 T01110033
KBHM 221453Z 00000KT 10SM BKN250 14/03 A3033 RMK AO2 SLP267 T01440028 51010
KBHM 221553Z 12010KT 10SM BKN250 16/03 A3032 RMK AO2 SLP265 T01560028
KBHM 221653Z VRB05KT 10SM BKN250 18/02 A3031 RMK AO2 SLP261 T01780017
KBHM 221753Z 00000KT 10SM BKN250 18/03 A3028 RMK AO2 SLP251 T01830028 10189 20061 58016
KBHM 221853Z VRB03KT 10SM BKN250 20/03 A3025 RMK AO2 SLP241 T02000033
KBHM 221953Z 06007KT 10SM BKN250 20/03 A3023 RMK AO2 SLP233 T02000033
KBHM 222053Z 00000KT 10SM SCT250 19/04 A3022 RMK AO2 SLP233 T01940039 56018
KBHM 222153Z 08004KT 10SM SCT150 OVC250 19/05 A3022 RMK AO2 SLP232 T01890050
KBHM 222253Z 09003KT 10SM FEW030 SCT150 BKN250 16/05 A3023 RMK AO2 SLP234 T01610050
KBHM 222353Z 11003KT 10SM SCT150 BKN250 14/07 A3023 RMK AO2 SLP234 T01440067 10206 20144 53001
KBHM 230053Z 00000KT 10SM SCT150 BKN250 13/08 A3023 RMK AO2 SLP234 T01330078
KBHM 230153Z 00000KT 10SM SCT150 OVC250 13/07 A3024 RMK AO2 SLP237 T01280072



Page loaded:  02:58 UTC  |   07:58 PM Pacific  |   08:58 PM Mountain  |   09:58 PM Central  |   10:58 PM Eastern

 

ADVISORIES

FORECASTS

FORECASTS

OBSERVATIONS

USER TOOLS

ABOUT US